METAR AND TAF INFORMATION
METAR FOR KSEZ
ADDS - METARS form results

(1232 UTC 02 June 2020)
Data provider http://aviationweather.gov/metar/data/
 
METAR text: KSEZ 021215Z AUTO 02008KT 10SM CLR 21/M01 A3015 RMK AO2
Conditions at: KSEZ (SEDONA , AZ, US) observed 1215 UTC 02 June 2020
Temperature: 21.0°C (70°F)
Dewpoint: -1.0°C (30°F) [RH = 23%]
Pressure (altimeter): 30.15 inches Hg (1021.1 mb)
Winds: from the NNE (20 degrees) at 9 MPH (8 knots; 4.1 m/s)
Visibility: 10 or more miles (16+ km)
Ceiling: at least 12,000 feet AGL
Clouds: sky clear below 12,000 feet AGL
Weather: automated observation with no human augmentation;
there may or may not be significant weather present at this time

METAR text: KSEZ 021155Z AUTO 02011KT 10SM CLR 21/M01 A3015 RMK AO2
Conditions at: KSEZ (SEDONA , AZ, US) observed 1155 UTC 02 June 2020
Temperature: 21.0°C (70°F)
Dewpoint: -1.0°C (30°F) [RH = 23%]
Pressure (altimeter): 30.15 inches Hg (1021.1 mb)
Winds: from the NNE (20 degrees) at 13 MPH (11 knots; 5.7 m/s)
Visibility: 10 or more miles (16+ km)
Ceiling: at least 12,000 feet AGL
Clouds: sky clear below 12,000 feet AGL
Weather: automated observation with no human augmentation;
there may or may not be significant weather present at this time

METAR text: KSEZ 021135Z AUTO 02010KT 10SM CLR 21/M01 A3015 RMK AO2
Conditions at: KSEZ (SEDONA , AZ, US) observed 1135 UTC 02 June 2020
Temperature: 21.0°C (70°F)
Dewpoint: -1.0°C (30°F) [RH = 23%]
Pressure (altimeter): 30.15 inches Hg (1021.1 mb)
Winds: from the NNE (20 degrees) at 12 MPH (10 knots; 5.1 m/s)
Visibility: 10 or more miles (16+ km)
Ceiling: at least 12,000 feet AGL
Clouds: sky clear below 12,000 feet AGL
Weather: automated observation with no human augmentation;
there may or may not be significant weather present at this time

Forecast for: KSEZ (SEDONA , AZ, US)
Text: KSEZ 021120Z 0212/0312 03010KT P6SM FEW130
Forecast period: 1200 to 1500 UTC 02 June 2020
Forecast type: FROM: standard forecast or significant change
Winds: from the NNE (30 degrees) at 12 MPH (10 knots; 5.1 m/s)
Visibility: 6 or more miles 10+ km)
Ceiling: at least 12,000 feet AGL
Clouds: few clouds at 13000 feet AGL
Weather: no significant weather forecast for this period
Text: FM021500 VRB06KT P6SM SCT110
Forecast period: 1500 UTC 02 June 2020 to 1200 UTC 03 June 2020
Forecast type: FROM: standard forecast or significant change
Winds: variable direction winds at 7 MPH (6 knots; 3.1 m/s)
Visibility: 6 or more miles 10+ km)
Ceiling: at least 12,000 feet AGL
Clouds: scattered clouds at 11000 feet AGL
Weather: no significant weather forecast for this period

 AIRPORT MAP

 RUNWAY INFORMATION
Runway 03 Runway length 5129 ft Runway width 100 ft
Runway elevation 4736 ft Runway displaced threshold 0 ft Runway heading 46
Runway 21 Runway length 5129 ft Runway width 100 ft
Runway elevation 4827 ft Runway displaced threshold 0 ft Runway heading 226

 AIRPORT FREQUENCIES
Type A/D Name ALBUQUERQU Frequency 124.5 MHZ
Type AWOS Name AWOS 2 Frequency 118.525 MHZ
Type RDO Name PRESCOTT R Frequency 122.3 MHZ
Type UNIC Name CTAF/UNICO Frequency 123 MHZ

 AIRPORT NEAR NAVIGATION AIDS



Air Greece virtual AIrline - All rights reserved 2018 - Powered by Virtual Airlines Manager [v2.6.2]